Raymondville, TX (78580)

12:01 AM CST on March 06, 2015 (GMT -0600)
Brownstone | Change Station
CLOSE
Current Station
Personal Weather Station
Location: Harlingen, TX
Elevation: 59 ft
Nearby Weather Stations

Elev 59 ft 26.21 °N, 97.79 °W | Updated 16 seconds ago

Overcast
Overcast
49.1 °F
Feels Like 49 °F
N
0.0
Wind Variable Wind from North
Gusts 0.0 mph

Today
High -- | Low -- °F
--% Chance of Precip.
Yesterday
High -- | Low -- °F
Precip. -- in
6:50 AM 6:35 PM
Full, 100% visible
Pressure 30.52 in
Visibility 10.0 miles
Clouds Overcast 9000 ft
Windchill 49 °F
Dew Point 31 °F
Humidity 49%
Rainfall in
Snow Depth Not available.
UV 0 out of 12
Pollen 6.40 out of 12
Air Quality Not available.
Flu Activity Not available.
METAR KHRL 060552Z 35015KT 10SM OVC090 10/M01 A3052 RMK AO2 SLP333 T01001006 10106 20100 402220056 50003

More Conditions Fewer Conditions

Pressure 30.52 in
Visibility 10.0 miles
Clouds Overcast 9000 ft
Windchill 49 °F
Dew Point 31 °F
Humidity 49%
Rainfall in
Snow Depth Not available.
UV 0 out of 12
Pollen 6.40 out of 12
Air Quality Not available.
Flu Activity Not available.
METAR KHRL 060552Z 35015KT 10SM OVC090 10/M01 A3052 RMK AO2 SLP333 T01001006 10106 20100 402220056 50003

More Conditions Fewer Conditions

10-Day Weather Forecast

Almanac

Astronomy

Mar. 06, 2015 Rise Set
Actual Time
Civil Twilight
Nautical Twilight
Astronomical Twilight
Moon
Length of Visible Light
Length of Day
Tomorrow will be .
, % of the Moon is Illuminated

Today's Extremes

State Highs State Lows

Community

WunderPhotos

Upload Photos

1,803,194 photos uploaded!

WunderBlogs® & News

Nearby

Air Quality

  Air Quality AQ Index Pollutant
Not available.

Snow Depth

Station Depth Elevation

Earthquake Activity

City Distance Mag. Time & Date
Minimum magnitude displayed is 2.5.

Coastal Water Temperatures

Place Temperature

Nearby Weather Stations